Time,TemperatureF,DewpointF,PressureIn,WindDirection,WindDirectionDegrees,WindSpeedMPH,WindSpeedGustMPH,Humidity,HourlyPrecipIn,Conditions,Clouds,dailyrainin,SoftwareType,DateUTC
2013-03-09 00:01:00,42.7,36.5,30.03,SSE,158,10.1,13.6,79,0.00,,,0.00,WUHU216HW,2013-03-09 06:01:00,
2013-03-09 00:06:00,42.7,36.5,30.03,South,180,11.6,11.9,79,0.00,,,0.00,WUHU216HW,2013-03-09 06:06:00,
2013-03-09 00:11:00,42.5,36.4,30.03,ESE,113,12.1,14.3,79,0.00,,,0.00,WUHU216HW,2013-03-09 06:11:00,
2013-03-09 00:16:00,42.5,36.4,30.03,SE,135,9.4,15.7,79,0.00,,,0.00,WUHU216HW,2013-03-09 06:16:00,
2013-03-09 00:21:00,42.5,36.4,30.03,SE,135,12.8,15.7,79,0.00,,,0.00,WUHU216HW,2013-03-09 06:21:00,
2013-03-09 00:26:00,42.3,36.2,30.03,SE,135,10.5,13.6,79,0.00,,,0.00,WUHU216HW,2013-03-09 06:26:00,
2013-03-09 00:31:00,42.3,36.2,30.03,SSE,158,9.8,12.8,79,0.00,,,0.00,WUHU216HW,2013-03-09 06:31:00,
2013-03-09 00:36:00,42.1,36.0,30.03,East,90,12.1,13.6,79,0.00,,,0.00,WUHU216HW,2013-03-09 06:36:00,
2013-03-09 00:41:00,42.3,36.2,30.03,South,180,9.4,13.6,79,0.00,,,0.00,WUHU216HW,2013-03-09 06:41:00,
2013-03-09 00:46:00,42.3,36.2,30.02,SSE,158,8.5,12.1,79,0.00,,,0.00,WUHU216HW,2013-03-09 06:46:00,
2013-03-09 00:50:00,42.1,36.0,30.02,North,0,0.0,9.6,79,0.00,,,0.00,WUHU216HW,2013-03-09 06:50:00,
2013-03-09 00:55:00,42.3,36.2,30.02,South,180,13.0,13.0,79,0.00,,,0.00,WUHU216HW,2013-03-09 06:55:00,
2013-03-09 01:00:00,42.1,36.0,30.02,ESE,113,10.1,13.0,79,0.00,,,0.00,WUHU216HW,2013-03-09 07:00:00,
2013-03-09 01:05:00,42.1,36.0,30.02,ESE,113,14.5,14.5,79,0.00,,,0.00,WUHU216HW,2013-03-09 07:05:00,
2013-03-09 01:10:00,42.1,36.0,30.02,SSE,158,11.9,14.5,79,0.00,,,0.00,WUHU216HW,2013-03-09 07:10:00,
2013-03-09 01:15:00,41.9,35.8,30.02,ESE,113,13.2,14.5,79,0.00,,,0.00,WUHU216HW,2013-03-09 07:15:00,
2013-03-09 01:20:00,41.9,35.8,30.01,ESE,113,9.8,13.4,79,0.00,,,0.00,WUHU216HW,2013-03-09 07:20:00,
2013-03-09 01:25:00,41.9,36.2,30.02,SE,135,12.5,12.5,80,0.00,,,0.00,WUHU216HW,2013-03-09 07:25:00,
2013-03-09 01:30:00,41.9,36.2,30.02,SE,135,10.5,12.5,80,0.00,,,0.00,WUHU216HW,2013-03-09 07:30:00,
2013-03-09 01:35:00,41.9,36.2,30.01,SE,135,10.7,17.2,80,0.00,,,0.00,WUHU216HW,2013-03-09 07:35:00,
2013-03-09 01:40:00,41.9,36.2,30.01,SSE,158,11.9,17.2,80,0.00,,,0.00,WUHU216HW,2013-03-09 07:40:00,
2013-03-09 01:45:00,41.8,36.3,30.01,ESE,113,12.8,15.4,81,0.00,,,0.00,WUHU216HW,2013-03-09 07:45:00,
2013-03-09 01:50:00,41.8,36.3,30.01,ESE,113,14.3,15.2,81,0.00,,,0.00,WUHU216HW,2013-03-09 07:50:00,
2013-03-09 01:55:00,41.8,36.3,30.01,SE,135,8.9,14.3,81,0.00,,,0.00,WUHU216HW,2013-03-09 07:55:00,
2013-03-09 02:00:00,41.8,36.3,30.01,SE,135,10.1,13.0,81,0.00,,,0.00,WUHU216HW,2013-03-09 08:00:00,
2013-03-09 02:05:00,41.6,36.1,30.01,SE,135,14.8,14.8,81,0.00,,,0.00,WUHU216HW,2013-03-09 08:05:00,
2013-03-09 02:10:00,41.4,35.9,30.01,ESE,113,8.5,14.8,81,0.00,,,0.00,WUHU216HW,2013-03-09 08:10:00,
2013-03-09 02:15:00,41.4,36.3,30.00,SSE,158,14.1,14.1,82,0.00,,,0.00,WUHU216HW,2013-03-09 08:15:00,
2013-03-09 02:20:00,41.4,36.3,30.00,SE,135,8.3,14.1,82,0.00,,,0.00,WUHU216HW,2013-03-09 08:20:00,
2013-03-09 02:25:00,41.2,36.1,30.00,SSE,158,9.6,14.1,82,0.00,,,0.00,WUHU216HW,2013-03-09 08:25:00,
2013-03-09 02:30:00,41.0,36.2,29.99,SE,135,8.5,13.6,83,0.00,,,0.00,WUHU216HW,2013-03-09 08:30:00,
2013-03-09 02:35:00,41.0,35.9,29.99,ESE,113,9.8,13.6,82,0.00,,,0.00,WUHU216HW,2013-03-09 08:35:00,
2013-03-09 02:40:00,41.0,35.9,29.99,SE,135,6.9,9.8,82,0.00,,,0.00,WUHU216HW,2013-03-09 08:40:00,
2013-03-09 02:45:00,41.0,36.2,29.98,SSE,158,10.1,10.1,83,0.00,,,0.00,WUHU216HW,2013-03-09 08:45:00,
2013-03-09 02:50:00,41.0,35.9,29.98,SE,135,6.3,10.1,82,0.00,,,0.00,WUHU216HW,2013-03-09 08:50:00,
2013-03-09 02:55:00,40.9,36.0,29.97,SSE,158,8.5,10.1,83,0.00,,,0.00,WUHU216HW,2013-03-09 08:55:00,
2013-03-09 03:00:00,40.9,36.0,29.97,ESE,113,6.3,8.5,83,0.00,,,0.00,WUHU216HW,2013-03-09 09:00:00,
2013-03-09 03:05:00,40.9,36.0,29.97,SE,135,6.9,8.3,83,0.00,,,0.00,WUHU216HW,2013-03-09 09:05:00,
2013-03-09 03:10:00,40.9,36.0,29.97,ESE,113,8.1,8.1,83,0.00,,,0.00,WUHU216HW,2013-03-09 09:10:00,
2013-03-09 03:15:00,40.9,36.4,29.97,SE,135,13.0,13.0,84,0.00,,,0.00,WUHU216HW,2013-03-09 09:15:00,
2013-03-09 03:20:00,40.7,36.2,29.97,SSE,158,10.7,13.0,84,0.00,,,0.00,WUHU216HW,2013-03-09 09:20:00,
2013-03-09 03:25:00,40.7,36.2,29.97,SSE,158,6.9,13.4,84,0.00,,,0.00,WUHU216HW,2013-03-09 09:25:00,
2013-03-09 03:30:00,40.7,36.2,29.97,SE,135,7.2,13.4,84,0.00,,,0.00,WUHU216HW,2013-03-09 09:30:00,
2013-03-09 03:35:00,40.7,36.2,29.96,SE,135,7.6,7.6,84,0.00,,,0.00,WUHU216HW,2013-03-09 09:35:00,
2013-03-09 03:40:00,40.7,36.2,29.96,ESE,113,8.7,9.8,84,0.00,,,0.00,WUHU216HW,2013-03-09 09:40:00,
2013-03-09 03:45:00,40.9,36.4,29.96,SE,135,10.1,10.1,84,0.00,,,0.00,WUHU216HW,2013-03-09 09:45:00,
2013-03-09 03:50:00,40.9,36.6,29.95,SE,135,6.3,10.1,85,0.00,,,0.00,WUHU216HW,2013-03-09 09:50:00,
2013-03-09 03:55:00,41.0,36.8,29.95,SSE,158,4.7,10.3,85,0.00,,,0.00,WUHU216HW,2013-03-09 09:55:00,
2013-03-09 04:00:00,41.0,36.8,29.95,SE,135,5.8,10.3,85,0.00,,,0.00,WUHU216HW,2013-03-09 10:00:00,
2013-03-09 04:05:00,41.2,37.0,29.95,ESE,113,8.5,9.8,85,0.00,,,0.00,WUHU216HW,2013-03-09 10:05:00,
2013-03-09 04:10:00,41.4,37.2,29.95,ESE,113,7.6,9.6,85,0.00,,,0.00,WUHU216HW,2013-03-09 10:10:00,
2013-03-09 04:15:00,41.4,37.2,29.94,SE,135,7.8,9.6,85,0.00,,,0.00,WUHU216HW,2013-03-09 10:15:00,
2013-03-09 04:20:00,41.4,37.2,29.94,SE,135,8.5,8.9,85,0.00,,,0.00,WUHU216HW,2013-03-09 10:20:00,
2013-03-09 04:25:00,41.4,37.4,29.94,ESE,113,8.1,8.5,86,0.00,,,0.00,WUHU216HW,2013-03-09 10:25:00,
2013-03-09 04:30:00,41.4,37.4,29.94,SSE,158,9.8,11.2,86,0.00,,,0.00,WUHU216HW,2013-03-09 10:30:00,
2013-03-09 04:35:00,41.4,37.4,29.93,SSE,158,13.4,13.4,86,0.00,,,0.00,WUHU216HW,2013-03-09 10:35:00,
2013-03-09 04:40:00,41.4,37.4,29.93,ESE,113,8.5,13.4,86,0.00,,,0.00,WUHU216HW,2013-03-09 10:40:00,
2013-03-09 04:45:00,41.2,37.3,29.93,SSE,158,8.5,10.5,86,0.00,,,0.00,WUHU216HW,2013-03-09 10:45:00,
2013-03-09 04:50:00,41.0,37.5,29.93,SSE,158,7.6,10.5,87,0.00,,,0.00,WUHU216HW,2013-03-09 10:50:00,
2013-03-09 04:55:00,41.0,37.5,29.93,ESE,113,7.6,8.9,87,0.00,,,0.00,WUHU216HW,2013-03-09 10:55:00,
2013-03-09 05:00:00,41.2,37.6,29.92,SSE,158,8.5,9.4,87,0.00,,,0.00,WUHU216HW,2013-03-09 11:00:00,
2013-03-09 05:05:00,41.4,37.8,29.93,SE,135,8.9,9.4,87,0.00,,,0.00,WUHU216HW,2013-03-09 11:05:00,
2013-03-09 05:10:00,41.4,37.8,29.92,SE,135,6.3,8.9,87,0.00,,,0.00,WUHU216HW,2013-03-09 11:10:00,
2013-03-09 05:15:00,41.4,37.8,29.92,SSE,158,7.4,10.5,87,0.00,,,0.00,WUHU216HW,2013-03-09 11:15:00,
2013-03-09 05:20:00,41.2,37.6,29.92,ESE,113,7.8,10.5,87,0.00,,,0.00,WUHU216HW,2013-03-09 11:20:00,
2013-03-09 05:25:00,41.0,37.5,29.92,ESE,113,6.9,7.8,87,0.00,,,0.00,WUHU216HW,2013-03-09 11:25:00,
2013-03-09 05:30:00,40.9,37.5,29.92,SSE,158,9.2,10.5,88,0.00,,,0.00,WUHU216HW,2013-03-09 11:30:00,
2013-03-09 05:35:00,40.7,37.4,29.92,ESE,113,11.0,11.0,88,0.00,,,0.00,WUHU216HW,2013-03-09 11:35:00,
2013-03-09 05:40:00,40.7,37.4,29.93,South,180,8.3,11.0,88,0.00,,,0.00,WUHU216HW,2013-03-09 11:40:00,
2013-03-09 05:45:00,40.7,37.4,29.93,SE,135,6.9,8.3,88,0.00,,,0.00,WUHU216HW,2013-03-09 11:45:00,
2013-03-09 05:50:00,40.7,37.4,29.92,SE,135,7.8,7.8,88,0.00,,,0.00,WUHU216HW,2013-03-09 11:50:00,
2013-03-09 05:55:00,40.7,37.7,29.92,SE,135,7.6,8.3,89,0.00,,,0.00,WUHU216HW,2013-03-09 11:55:00,
2013-03-09 06:00:00,40.7,37.7,29.92,ESE,113,6.7,9.2,89,0.00,,,0.00,WUHU216HW,2013-03-09 12:00:00,
2013-03-09 06:05:00,40.7,37.7,29.92,ESE,113,6.0,9.2,89,0.00,,,0.00,WUHU216HW,2013-03-09 12:05:00,
2013-03-09 06:10:00,40.7,37.7,29.91,SSE,158,12.3,12.3,89,0.00,,,0.00,WUHU216HW,2013-03-09 12:10:00,
2013-03-09 06:15:00,40.7,38.0,29.92,SE,135,8.1,12.3,90,0.00,,,0.00,WUHU216HW,2013-03-09 12:15:00,
2013-03-09 06:20:00,40.7,38.0,29.91,SE,135,8.1,9.8,90,0.00,,,0.00,WUHU216HW,2013-03-09 12:20:00,
2013-03-09 06:25:00,40.7,38.0,29.91,SSE,158,13.2,13.2,90,0.00,,,0.00,WUHU216HW,2013-03-09 12:25:00,
2013-03-09 06:30:00,40.7,38.0,29.91,SE,135,7.8,13.2,90,0.00,,,0.00,WUHU216HW,2013-03-09 12:30:00,
2013-03-09 06:35:00,40.7,38.0,29.91,SE,135,9.2,10.5,90,0.00,,,0.00,WUHU216HW,2013-03-09 12:35:00,
2013-03-09 06:40:00,40.9,38.2,29.91,NE,45,7.6,11.2,90,0.00,,,0.00,WUHU216HW,2013-03-09 12:40:00,
2013-03-09 06:45:00,40.9,38.2,29.91,SSE,158,6.3,11.4,90,0.00,,,0.00,WUHU216HW,2013-03-09 12:45:00,
2013-03-09 06:50:00,41.0,38.3,29.91,SE,135,9.6,11.4,90,0.00,,,0.00,WUHU216HW,2013-03-09 12:50:00,
2013-03-09 06:55:00,41.2,38.3,29.91,SE,135,4.9,10.1,89,0.00,,,0.00,WUHU216HW,2013-03-09 12:55:00,
2013-03-09 07:00:00,41.2,38.3,29.92,ESE,113,6.9,10.1,89,0.00,,,0.00,WUHU216HW,2013-03-09 13:00:00,
2013-03-09 07:05:00,41.2,38.3,29.92,SE,135,8.5,8.5,89,0.00,,,0.00,WUHU216HW,2013-03-09 13:05:00,
2013-03-09 07:10:00,41.2,38.3,29.92,SSE,158,8.3,8.5,89,0.00,,,0.00,WUHU216HW,2013-03-09 13:10:00,
2013-03-09 07:15:00,41.2,38.3,29.92,SE,135,7.6,8.3,89,0.00,,,0.00,WUHU216HW,2013-03-09 13:15:00,
2013-03-09 07:20:00,41.4,38.4,29.91,SE,135,7.6,8.5,89,0.00,,,0.00,WUHU216HW,2013-03-09 13:20:00,
2013-03-09 07:25:00,41.2,38.3,29.91,ESE,113,5.1,9.2,89,0.00,,,0.00,WUHU216HW,2013-03-09 13:25:00,
2013-03-09 07:30:00,41.0,38.1,29.91,ESE,113,8.5,9.2,89,0.00,,,0.00,WUHU216HW,2013-03-09 13:30:00,
2013-03-09 07:35:00,41.2,38.5,29.91,East,90,8.1,8.5,90,0.00,,,0.00,WUHU216HW,2013-03-09 13:35:00,
2013-03-09 07:40:00,41.2,38.5,29.91,ESE,113,8.7,8.7,90,0.00,,,0.00,WUHU216HW,2013-03-09 13:40:00,
2013-03-09 07:45:00,41.0,38.3,29.90,SE,135,10.1,10.1,90,0.00,,,0.00,WUHU216HW,2013-03-09 13:45:00,
2013-03-09 07:50:00,41.0,38.3,29.90,SSE,158,8.3,10.1,90,0.00,,,0.00,WUHU216HW,2013-03-09 13:50:00,
2013-03-09 07:55:00,41.2,38.5,29.90,SE,135,9.8,10.1,90,0.00,,,0.00,WUHU216HW,2013-03-09 13:55:00,
2013-03-09 08:00:00,41.2,38.5,29.89,SE,135,9.6,12.3,90,0.00,,,0.00,WUHU216HW,2013-03-09 14:00:00,
2013-03-09 08:05:00,41.4,38.7,29.89,SE,135,9.8,12.3,90,0.00,,,0.00,WUHU216HW,2013-03-09 14:05:00,
2013-03-09 08:10:00,41.4,38.7,29.89,East,90,7.2,11.4,90,0.00,,,0.00,WUHU216HW,2013-03-09 14:10:00,
2013-03-09 08:15:00,41.6,38.9,29.89,SE,135,13.4,13.4,90,0.00,,,0.00,WUHU216HW,2013-03-09 14:15:00,
2013-03-09 08:20:00,41.8,39.1,29.89,SE,135,7.6,13.4,90,0.00,,,0.00,WUHU216HW,2013-03-09 14:20:00,
2013-03-09 08:25:00,41.6,38.9,29.89,ESE,113,7.2,13.4,90,0.00,,,0.00,WUHU216HW,2013-03-09 14:25:00,
2013-03-09 08:30:00,41.8,39.1,29.89,SE,135,9.4,10.7,90,0.00,,,0.00,WUHU216HW,2013-03-09 14:30:00,
2013-03-09 08:35:00,41.8,39.1,29.89,SE,135,10.7,10.7,90,0.00,,,0.00,WUHU216HW,2013-03-09 14:35:00,
2013-03-09 08:40:00,41.8,39.1,29.89,ESE,113,6.7,14.8,90,0.00,,,0.00,WUHU216HW,2013-03-09 14:40:00,
2013-03-09 08:45:00,41.8,39.1,29.89,SSE,158,11.9,14.8,90,0.00,,,0.00,WUHU216HW,2013-03-09 14:45:00,
2013-03-09 08:50:00,41.8,39.1,29.88,SE,135,8.5,11.9,90,0.00,,,0.00,WUHU216HW,2013-03-09 14:50:00,
2013-03-09 08:55:00,41.8,39.1,29.88,SE,135,8.5,9.8,90,0.00,,,0.00,WUHU216HW,2013-03-09 14:55:00,
2013-03-09 09:00:00,41.9,39.0,29.88,SE,135,8.5,11.0,89,0.00,,,0.00,WUHU216HW,2013-03-09 15:00:00,
2013-03-09 09:05:00,42.1,39.2,29.88,SE,135,6.3,11.0,89,0.00,,,0.00,WUHU216HW,2013-03-09 15:05:00,
2013-03-09 09:10:00,42.1,39.2,29.88,SE,135,7.2,9.2,89,0.00,,,0.00,WUHU216HW,2013-03-09 15:10:00,
2013-03-09 09:15:00,42.1,39.2,29.88,ESE,113,8.1,13.0,89,0.00,,,0.00,WUHU216HW,2013-03-09 15:15:00,
2013-03-09 09:20:00,42.1,39.2,29.87,ESE,113,8.5,13.0,89,0.00,,,0.00,WUHU216HW,2013-03-09 15:20:00,
2013-03-09 09:25:00,42.1,39.2,29.88,SE,135,8.3,10.3,89,0.00,,,0.00,WUHU216HW,2013-03-09 15:25:00,
2013-03-09 09:30:00,41.9,39.0,29.88,ESE,113,7.8,10.7,89,0.00,,,0.00,WUHU216HW,2013-03-09 15:30:00,
2013-03-09 09:35:00,41.9,39.0,29.88,SE,135,5.1,10.7,89,0.00,,,0.00,WUHU216HW,2013-03-09 15:35:00,
2013-03-09 09:40:00,41.8,39.1,29.88,SE,135,6.5,8.7,90,0.01,,,0.02,WUHU216HW,2013-03-09 15:40:00,
2013-03-09 09:45:00,41.6,38.9,29.89,SSE,158,5.4,8.7,90,0.01,,,0.02,WUHU216HW,2013-03-09 15:45:00,
2013-03-09 09:50:00,41.6,38.9,29.89,SE,135,4.0,8.1,90,0.01,,,0.02,WUHU216HW,2013-03-09 15:50:00,
2013-03-09 09:55:00,41.4,38.7,29.88,SSE,158,4.7,5.4,90,0.03,,,0.04,WUHU216HW,2013-03-09 15:55:00,
2013-03-09 10:00:00,41.4,38.7,29.88,SSE,158,5.4,6.0,90,0.05,,,0.05,WUHU216HW,2013-03-09 16:00:00,
2013-03-09 10:05:00,41.2,38.8,29.88,SE,135,5.4,6.9,91,0.05,,,0.05,WUHU216HW,2013-03-09 16:05:00,
2013-03-09 10:10:00,41.2,39.1,29.88,ESE,113,6.9,7.2,92,0.07,,,0.07,WUHU216HW,2013-03-09 16:10:00,
2013-03-09 10:15:00,41.0,38.9,29.87,SE,135,6.9,8.3,92,0.08,,,0.07,WUHU216HW,2013-03-09 16:15:00,
2013-03-09 10:20:00,41.0,38.9,29.87,ESE,113,6.9,8.5,92,0.09,,,0.09,WUHU216HW,2013-03-09 16:20:00,
2013-03-09 10:25:00,41.0,38.9,29.86,ENE,68,5.8,8.5,92,0.10,,,0.11,WUHU216HW,2013-03-09 16:25:00,
2013-03-09 10:30:00,41.0,38.9,29.85,SE,135,6.9,7.4,92,0.12,,,0.13,WUHU216HW,2013-03-09 16:30:00,
2013-03-09 10:35:00,41.0,38.9,29.85,SE,135,6.3,7.4,92,0.12,,,0.13,WUHU216HW,2013-03-09 16:35:00,
2013-03-09 10:40:00,41.0,38.9,29.85,SE,135,3.8,6.3,92,0.14,,,0.15,WUHU216HW,2013-03-09 16:40:00,
2013-03-09 10:45:00,41.0,39.2,29.86,SE,135,4.7,6.3,93,0.14,,,0.16,WUHU216HW,2013-03-09 16:45:00,
2013-03-09 10:50:00,41.0,38.9,29.86,SSE,158,4.7,6.9,92,0.12,,,0.16,WUHU216HW,2013-03-09 16:50:00,
2013-03-09 10:55:00,41.0,39.2,29.86,SE,135,6.7,6.9,93,0.12,,,0.17,WUHU216HW,2013-03-09 16:55:00,
2013-03-09 11:00:00,41.0,39.2,29.86,ESE,113,5.4,6.7,93,0.13,,,0.19,WUHU216HW,2013-03-09 17:00:00,
2013-03-09 11:05:00,41.0,39.2,29.85,SE,135,5.4,6.0,93,0.15,,,0.23,WUHU216HW,2013-03-09 17:05:00,
2013-03-09 11:10:00,41.0,39.2,29.84,ESE,113,5.6,5.6,93,0.17,,,0.25,WUHU216HW,2013-03-09 17:10:00,
2013-03-09 11:15:00,41.0,39.2,29.84,SE,135,8.3,8.5,93,0.19,,,0.29,WUHU216HW,2013-03-09 17:15:00,
2013-03-09 11:20:00,41.0,39.2,29.84,ESE,113,6.3,8.7,93,0.20,,,0.30,WUHU216HW,2013-03-09 17:20:00,
2013-03-09 11:25:00,41.2,39.3,29.83,SSE,158,10.5,10.5,93,0.19,,,0.31,WUHU216HW,2013-03-09 17:25:00,
2013-03-09 11:30:00,41.2,39.3,29.83,SE,135,7.6,10.5,93,0.18,,,0.31,WUHU216HW,2013-03-09 17:30:00,
2013-03-09 11:35:00,41.2,39.3,29.83,East,90,5.8,10.5,93,0.16,,,0.31,WUHU216HW,2013-03-09 17:35:00,
2013-03-09 11:40:00,41.4,39.5,29.83,ESE,113,5.8,8.5,93,0.15,,,0.31,WUHU216HW,2013-03-09 17:40:00,
2013-03-09 11:45:00,41.4,39.5,29.83,ESE,113,8.7,11.6,93,0.16,,,0.32,WUHU216HW,2013-03-09 17:45:00,
2013-03-09 11:50:00,41.4,39.5,29.83,SSE,158,7.6,11.6,93,0.16,,,0.32,WUHU216HW,2013-03-09 17:50:00,
2013-03-09 11:55:00,41.6,39.7,29.82,ESE,113,4.0,7.6,93,0.16,,,0.34,WUHU216HW,2013-03-09 17:55:00,
2013-03-09 12:00:00,41.6,39.7,29.82,SE,135,8.5,8.5,93,0.15,,,0.36,WUHU216HW,2013-03-09 18:00:00,
2013-03-09 12:05:00,41.6,39.7,29.82,SE,135,4.0,8.5,93,0.12,,,0.37,WUHU216HW,2013-03-09 18:05:00,
2013-03-09 12:10:00,41.8,39.9,29.82,SSE,158,4.0,6.9,93,0.10,,,0.38,WUHU216HW,2013-03-09 18:10:00,
2013-03-09 12:15:00,41.8,39.9,29.82,ESE,113,8.1,8.5,93,0.10,,,0.40,WUHU216HW,2013-03-09 18:15:00,
2013-03-09 12:20:00,41.9,40.1,29.81,ESE,113,5.8,8.5,93,0.10,,,0.40,WUHU216HW,2013-03-09 18:20:00,
2013-03-09 12:25:00,41.9,40.1,29.81,SE,135,6.3,8.5,93,0.09,,,0.40,WUHU216HW,2013-03-09 18:25:00,
2013-03-09 12:30:00,41.9,40.1,29.80,ESE,113,6.5,8.5,93,0.10,,,0.40,WUHU216HW,2013-03-09 18:30:00,
2013-03-09 12:35:00,41.9,40.1,29.79,SE,135,6.9,7.6,93,0.12,,,0.43,WUHU216HW,2013-03-09 18:35:00,
2013-03-09 12:40:00,42.1,40.2,29.80,ESE,113,6.9,7.2,93,0.12,,,0.44,WUHU216HW,2013-03-09 18:40:00,
2013-03-09 12:45:00,42.1,40.2,29.80,SSE,158,7.2,7.6,93,0.13,,,0.45,WUHU216HW,2013-03-09 18:45:00,
2013-03-09 12:50:00,42.1,40.2,29.79,SSE,158,4.5,7.6,93,0.11,,,0.45,WUHU216HW,2013-03-09 18:50:00,
2013-03-09 12:55:00,42.3,40.4,29.78,East,90,4.3,6.3,93,0.11,,,0.46,WUHU216HW,2013-03-09 18:55:00,
2013-03-09 13:00:00,42.3,40.4,29.79,SE,135,5.4,6.3,93,0.10,,,0.47,WUHU216HW,2013-03-09 19:00:00,
2013-03-09 13:05:00,42.3,40.4,29.79,SE,135,5.8,6.3,93,0.14,,,0.49,WUHU216HW,2013-03-09 19:05:00,
2013-03-09 13:10:00,42.3,40.4,29.78,ESE,113,6.9,6.9,93,0.13,,,0.53,WUHU216HW,2013-03-09 19:10:00,
2013-03-09 13:15:00,42.3,40.4,29.77,ESE,113,5.8,6.9,93,0.13,,,0.53,WUHU216HW,2013-03-09 19:15:00,
2013-03-09 13:20:00,42.5,40.6,29.78,ESE,113,6.3,9.6,93,0.14,,,0.54,WUHU216HW,2013-03-09 19:20:00,
2013-03-09 13:25:00,42.3,40.4,29.78,ESE,113,4.7,9.6,93,0.15,,,0.55,WUHU216HW,2013-03-09 19:25:00,
2013-03-09 13:30:00,42.3,40.4,29.77,SE,135,6.3,6.3,93,0.15,,,0.56,WUHU216HW,2013-03-09 19:30:00,
2013-03-09 13:35:00,42.3,40.4,29.77,SE,135,5.8,6.3,93,0.14,,,0.58,WUHU216HW,2013-03-09 19:35:00,
2013-03-09 13:40:00,42.3,40.4,29.78,SSE,158,5.8,6.3,93,0.14,,,0.58,WUHU216HW,2013-03-09 19:40:00,
2013-03-09 13:45:00,42.5,40.6,29.77,SE,135,5.4,5.8,93,0.13,,,0.58,WUHU216HW,2013-03-09 19:45:00,
2013-03-09 13:50:00,42.7,40.8,29.77,SSE,158,5.1,6.3,93,0.13,,,0.59,WUHU216HW,2013-03-09 19:50:00,
2013-03-09 13:55:00,42.7,40.8,29.77,SE,135,5.4,8.3,93,0.13,,,0.59,WUHU216HW,2013-03-09 19:55:00,
2013-03-09 14:00:00,42.7,40.8,29.77,East,90,4.9,8.3,93,0.12,,,0.61,WUHU216HW,2013-03-09 20:00:00,
2013-03-09 14:05:00,42.7,40.8,29.75,SE,135,4.3,6.9,93,0.08,,,0.61,WUHU216HW,2013-03-09 20:05:00,
2013-03-09 14:10:00,42.8,41.0,29.76,SE,135,6.7,7.2,93,0.09,,,0.63,WUHU216HW,2013-03-09 20:10:00,
2013-03-09 14:15:00,42.8,41.2,29.77,ESE,113,6.7,7.2,94,0.09,,,0.63,WUHU216HW,2013-03-09 20:15:00,
2013-03-09 14:20:00,42.8,41.2,29.73,NNE,23,5.1,6.9,94,0.08,,,0.63,WUHU216HW,2013-03-09 20:20:00,
2013-03-09 14:25:00,42.8,41.2,29.74,SE,135,4.7,7.8,94,0.07,,,0.63,WUHU216HW,2013-03-09 20:25:00,
2013-03-09 14:30:00,43.0,41.1,29.74,ESE,113,5.8,7.8,93,0.07,,,0.63,WUHU216HW,2013-03-09 20:30:00,
2013-03-09 14:35:00,43.4,41.8,29.74,SSE,158,6.9,8.5,94,0.06,,,0.65,WUHU216HW,2013-03-09 20:35:00,
2013-03-09 14:40:00,43.6,41.9,29.75,SE,135,6.3,8.5,94,0.06,,,0.65,WUHU216HW,2013-03-09 20:40:00,
2013-03-09 14:45:00,43.6,41.9,29.75,SE,135,5.4,7.6,94,0.06,,,0.65,WUHU216HW,2013-03-09 20:45:00,
2013-03-09 14:50:00,43.6,41.9,29.75,SSE,158,4.5,7.6,94,0.05,,,0.65,WUHU216HW,2013-03-09 20:50:00,
2013-03-09 14:55:00,43.6,41.9,29.75,ESE,113,5.6,7.2,94,0.07,,,0.65,WUHU216HW,2013-03-09 20:55:00,
2013-03-09 15:00:00,43.6,41.9,29.75,ESE,113,7.8,7.8,94,0.06,,,0.67,WUHU216HW,2013-03-09 21:00:00,
2013-03-09 15:05:00,43.7,42.1,29.75,ESE,113,6.9,7.8,94,0.05,,,0.68,WUHU216HW,2013-03-09 21:05:00,
2013-03-09 15:10:00,43.9,42.3,29.75,SSE,158,4.9,7.2,94,0.06,,,0.68,WUHU216HW,2013-03-09 21:10:00,
2013-03-09 15:15:00,44.1,42.5,29.74,ESE,113,5.6,6.0,94,0.06,,,0.68,WUHU216HW,2013-03-09 21:15:00,
2013-03-09 15:20:00,44.6,43.0,29.74,SSE,158,7.2,9.2,94,0.06,,,0.68,WUHU216HW,2013-03-09 21:20:00,
2013-03-09 15:25:00,45.0,43.4,29.74,SE,135,4.7,9.2,94,0.05,,,0.68,WUHU216HW,2013-03-09 21:25:00,
2013-03-09 15:30:00,45.0,43.4,29.74,ESE,113,5.1,6.9,94,0.04,,,0.68,WUHU216HW,2013-03-09 21:30:00,
2013-03-09 15:35:00,45.2,43.6,29.75,SSE,158,5.4,6.9,94,0.04,,,0.68,WUHU216HW,2013-03-09 21:35:00,
2013-03-09 15:40:00,45.5,43.9,29.72,NE,45,3.4,6.3,94,0.05,,,0.70,WUHU216HW,2013-03-09 21:40:00,
2013-03-09 15:45:00,45.7,44.1,29.74,SSE,158,4.9,5.4,94,0.06,,,0.70,WUHU216HW,2013-03-09 21:45:00,
2013-03-09 15:50:00,45.9,44.3,29.74,SSW,203,3.6,4.9,94,0.05,,,0.70,WUHU216HW,2013-03-09 21:50:00,
2013-03-09 15:55:00,46.3,44.6,29.74,South,180,4.0,4.9,94,0.05,,,0.72,WUHU216HW,2013-03-09 21:55:00,
2013-03-09 16:00:00,46.6,45.0,29.75,SSE,158,3.4,4.3,94,0.05,,,0.72,WUHU216HW,2013-03-09 22:00:00,
2013-03-09 16:05:00,46.8,45.2,29.75,South,180,2.5,4.5,94,0.04,,,0.72,WUHU216HW,2013-03-09 22:05:00,
2013-03-09 16:10:00,46.8,45.2,29.75,SSE,158,1.8,4.5,94,0.04,,,0.72,WUHU216HW,2013-03-09 22:10:00,
2013-03-09 16:15:00,46.8,45.2,29.75,South,180,2.0,3.1,94,0.05,,,0.72,WUHU216HW,2013-03-09 22:15:00,
2013-03-09 16:20:00,47.0,45.4,29.74,SE,135,2.7,3.6,94,0.05,,,0.74,WUHU216HW,2013-03-09 22:20:00,
2013-03-09 16:25:00,47.2,45.8,29.74,SSE,158,1.3,3.6,95,0.06,,,0.75,WUHU216HW,2013-03-09 22:25:00,
2013-03-09 16:30:00,47.5,46.2,29.73,SSE,158,1.6,2.5,95,0.06,,,0.75,WUHU216HW,2013-03-09 22:30:00,
2013-03-09 16:35:00,47.5,46.2,29.74,SE,135,3.8,3.8,95,0.06,,,0.76,WUHU216HW,2013-03-09 22:35:00,
2013-03-09 16:40:00,47.9,46.5,29.74,SSE,158,2.5,3.8,95,0.05,,,0.76,WUHU216HW,2013-03-09 22:40:00,
2013-03-09 16:45:00,48.2,46.9,29.74,SW,225,1.8,3.8,95,0.05,,,0.76,WUHU216HW,2013-03-09 22:45:00,
2013-03-09 16:50:00,48.2,46.9,29.74,SSW,203,2.7,6.3,95,0.05,,,0.77,WUHU216HW,2013-03-09 22:50:00,
2013-03-09 16:55:00,48.6,47.3,29.75,SSW,203,4.7,6.3,95,0.07,,,0.79,WUHU216HW,2013-03-09 22:55:00,
2013-03-09 17:00:00,48.6,47.3,29.74,South,180,2.0,4.7,95,0.07,,,0.79,WUHU216HW,2013-03-09 23:00:00,
2013-03-09 17:05:00,48.8,47.4,29.74,SSE,158,1.6,4.5,95,0.10,,,0.82,WUHU216HW,2013-03-09 23:05:00,
2013-03-09 17:10:00,49.0,47.6,29.74,SSE,158,2.5,3.4,95,0.12,,,0.85,WUHU216HW,2013-03-09 23:10:00,
2013-03-09 17:15:00,49.0,47.6,29.73,SSE,158,1.8,2.7,95,0.12,,,0.85,WUHU216HW,2013-03-09 23:15:00,
2013-03-09 17:20:00,49.1,47.7,29.73,SSE,158,2.5,2.7,95,0.13,,,0.87,WUHU216HW,2013-03-09 23:20:00,
2013-03-09 17:25:00,49.3,47.9,29.73,SSE,158,2.7,2.7,95,0.13,,,0.88,WUHU216HW,2013-03-09 23:25:00,
2013-03-09 17:30:00,49.3,47.9,29.73,SSE,158,2.7,3.4,95,0.14,,,0.89,WUHU216HW,2013-03-09 23:30:00,
2013-03-09 17:35:00,49.3,47.9,29.74,SSE,158,2.5,3.4,95,0.14,,,0.90,WUHU216HW,2013-03-09 23:35:00,
2013-03-09 17:40:00,49.7,48.2,29.74,SE,135,4.5,5.4,95,0.15,,,0.91,WUHU216HW,2013-03-09 23:40:00,
2013-03-09 17:45:00,50.0,48.6,29.74,SE,135,6.9,6.9,95,0.15,,,0.91,WUHU216HW,2013-03-09 23:45:00,
2013-03-09 17:50:00,50.2,48.8,29.72,SE,135,8.9,8.9,95,0.14,,,0.92,WUHU216HW,2013-03-09 23:50:00,
2013-03-09 17:55:00,50.2,48.8,29.72,ESE,113,5.4,8.9,95,0.13,,,0.92,WUHU216HW,2013-03-09 23:55:00,
2013-03-09 18:00:00,50.2,48.8,29.71,ESE,113,3.1,7.4,95,0.13,,,0.94,WUHU216HW,2013-03-10 00:00:00,
2013-03-09 18:05:00,50.2,48.8,29.72,South,180,1.8,5.4,95,0.09,,,0.94,WUHU216HW,2013-03-10 00:05:00,
2013-03-09 18:10:00,50.2,48.8,29.74,SE,135,5.4,5.4,95,0.09,,,0.94,WUHU216HW,2013-03-10 00:10:00,
2013-03-09 18:15:00,50.0,48.6,29.74,South,180,6.3,6.3,95,0.10,,,0.95,WUHU216HW,2013-03-10 00:15:00,
2013-03-09 18:20:00,50.0,48.6,29.73,SSE,158,8.7,10.3,95,0.10,,,0.97,WUHU216HW,2013-03-10 00:20:00,
2013-03-09 18:25:00,50.0,48.6,29.72,SSE,158,7.4,10.3,95,0.08,,,0.97,WUHU216HW,2013-03-10 00:25:00,
2013-03-09 18:30:00,49.7,48.2,29.71,ESE,113,2.9,7.4,95,0.10,,,0.98,WUHU216HW,2013-03-10 00:30:00,
2013-03-09 18:35:00,49.5,48.1,29.72,SE,135,6.9,7.6,95,0.09,,,0.99,WUHU216HW,2013-03-10 00:35:00,
2013-03-09 18:40:00,49.5,48.1,29.72,SE,135,5.8,7.6,95,0.08,,,0.99,WUHU216HW,2013-03-10 00:40:00,
2013-03-09 18:45:00,49.3,47.9,29.72,SSE,158,6.0,6.9,95,0.07,,,0.99,WUHU216HW,2013-03-10 00:45:00,
2013-03-09 18:50:00,49.3,47.9,29.72,ESE,113,4.0,7.6,95,0.07,,,0.99,WUHU216HW,2013-03-10 00:50:00,
2013-03-09 18:55:00,49.3,47.9,29.71,ENE,68,4.5,7.6,95,0.07,,,0.99,WUHU216HW,2013-03-10 00:55:00,
2013-03-09 19:00:00,49.3,47.9,29.72,ESE,113,5.4,5.6,95,0.05,,,0.99,WUHU216HW,2013-03-10 01:00:00,
2013-03-09 19:05:00,49.1,47.7,29.72,ESE,113,4.7,5.6,95,0.05,,,0.99,WUHU216HW,2013-03-10 01:05:00,
2013-03-09 19:10:00,49.0,47.6,29.72,ESE,113,4.7,4.7,95,0.04,,,0.99,WUHU216HW,2013-03-10 01:10:00,
2013-03-09 19:15:00,49.0,47.6,29.72,SE,135,6.3,6.3,95,0.03,,,0.99,WUHU216HW,2013-03-10 01:15:00,
2013-03-09 19:20:00,49.0,47.6,29.72,SSE,158,4.9,7.4,95,0.02,,,0.99,WUHU216HW,2013-03-10 01:20:00,
2013-03-09 19:25:00,49.0,47.6,29.72,SE,135,6.3,7.4,95,0.01,,,0.99,WUHU216HW,2013-03-10 01:25:00,
2013-03-09 19:30:00,48.8,47.4,29.71,SE,135,6.5,6.5,95,0.00,,,0.99,WUHU216HW,2013-03-10 01:30:00,
2013-03-09 19:35:00,48.6,47.3,29.71,SSE,158,6.3,6.5,95,0.00,,,0.99,WUHU216HW,2013-03-10 01:35:00,
2013-03-09 19:40:00,48.6,47.3,29.70,SE,135,5.1,6.9,95,0.00,,,0.99,WUHU216HW,2013-03-10 01:40:00,
2013-03-09 19:45:00,48.6,47.3,29.69,ESE,113,6.9,6.9,95,0.00,,,0.99,WUHU216HW,2013-03-10 01:45:00,
2013-03-09 19:50:00,48.6,47.3,29.70,ESE,113,8.3,8.3,95,0.00,,,0.99,WUHU216HW,2013-03-10 01:50:00,
2013-03-09 19:55:00,48.4,47.1,29.70,SE,135,6.9,8.3,95,0.00,,,0.99,WUHU216HW,2013-03-10 01:55:00,
2013-03-09 20:00:00,48.2,46.9,29.71,SE,135,8.9,9.4,95,0.00,,,0.99,WUHU216HW,2013-03-10 02:00:00,
2013-03-09 20:05:00,48.2,46.9,29.71,SE,135,8.5,9.4,95,0.00,,,0.99,WUHU216HW,2013-03-10 02:05:00,
2013-03-09 20:10:00,48.4,47.1,29.72,SE,135,10.1,10.1,95,0.00,,,0.99,WUHU216HW,2013-03-10 02:10:00,
2013-03-09 20:16:00,48.4,47.4,29.71,SE,135,8.3,13.0,96,0.00,,,0.99,WUHU216HW,2013-03-10 02:16:00,
2013-03-09 20:21:00,48.4,47.4,29.71,East,90,11.4,13.0,96,0.00,,,0.99,WUHU216HW,2013-03-10 02:21:00,
2013-03-09 20:26:00,48.4,47.4,29.71,ESE,113,9.4,11.9,96,0.00,,,0.99,WUHU216HW,2013-03-10 02:26:00,
2013-03-09 20:31:00,48.4,47.4,29.71,ESE,113,7.4,11.9,96,0.00,,,0.99,WUHU216HW,2013-03-10 02:31:00,
2013-03-09 20:36:00,48.6,47.5,29.71,ESE,113,9.2,9.4,96,0.00,,,0.99,WUHU216HW,2013-03-10 02:36:00,
2013-03-09 20:41:00,48.4,47.4,29.71,ESE,113,6.5,9.2,96,0.00,,,0.99,WUHU216HW,2013-03-10 02:41:00,
2013-03-09 20:46:00,48.4,47.4,29.71,ESE,113,8.5,9.8,96,0.00,,,0.99,WUHU216HW,2013-03-10 02:46:00,
2013-03-09 20:51:00,48.4,47.1,29.70,SE,135,6.7,9.8,95,0.00,,,0.99,WUHU216HW,2013-03-10 02:51:00,
2013-03-09 20:56:00,48.1,47.0,29.69,East,90,7.8,8.5,96,0.00,,,0.99,WUHU216HW,2013-03-10 02:56:00,
2013-03-09 21:01:00,47.9,46.8,29.68,East,90,9.8,9.8,96,0.00,,,0.99,WUHU216HW,2013-03-10 03:01:00,
2013-03-09 21:06:00,47.7,46.6,29.68,East,90,7.4,9.8,96,0.00,,,0.99,WUHU216HW,2013-03-10 03:06:00,
2013-03-09 21:11:00,47.7,46.6,29.70,ESE,113,4.9,8.5,96,0.00,,,0.99,WUHU216HW,2013-03-10 03:11:00,
2013-03-09 21:16:00,47.7,46.6,29.70,ESE,113,5.4,8.5,96,0.00,,,0.99,WUHU216HW,2013-03-10 03:16:00,
2013-03-09 21:21:00,47.7,46.6,29.70,ESE,113,6.0,7.6,96,0.00,,,0.99,WUHU216HW,2013-03-10 03:21:00,
2013-03-09 21:26:00,47.7,46.6,29.70,SE,135,4.9,7.6,96,0.00,,,0.99,WUHU216HW,2013-03-10 03:26:00,
2013-03-09 21:31:00,47.5,46.4,29.69,SE,135,4.7,6.7,96,0.00,,,0.99,WUHU216HW,2013-03-10 03:31:00,
2013-03-09 21:36:00,47.5,46.4,29.69,SE,135,6.9,9.4,96,0.00,,,0.99,WUHU216HW,2013-03-10 03:36:00,
2013-03-09 21:41:00,47.9,46.8,29.69,SE,135,6.9,9.4,96,0.00,,,0.99,WUHU216HW,2013-03-10 03:41:00,
2013-03-09 21:46:00,47.9,46.8,29.69,SSE,158,8.5,9.2,96,0.00,,,0.99,WUHU216HW,2013-03-10 03:46:00,
2013-03-09 21:51:00,47.9,46.8,29.69,SE,135,6.5,9.8,96,0.00,,,0.99,WUHU216HW,2013-03-10 03:51:00,
2013-03-09 21:56:00,47.9,46.8,29.69,SE,135,8.9,9.8,96,0.00,,,0.99,WUHU216HW,2013-03-10 03:56:00,
2013-03-09 22:01:00,47.9,46.8,29.67,SSE,158,8.9,10.7,96,0.00,,,0.99,WUHU216HW,2013-03-10 04:01:00,
2013-03-09 22:06:00,47.9,46.8,29.66,ESE,113,9.8,14.1,96,0.00,,,0.99,WUHU216HW,2013-03-10 04:06:00,
2013-03-09 22:11:00,47.9,46.8,29.65,ESE,113,12.1,14.1,96,0.00,,,0.99,WUHU216HW,2013-03-10 04:11:00,
2013-03-09 22:16:00,47.9,46.8,29.65,ESE,113,6.9,12.1,96,0.00,,,0.99,WUHU216HW,2013-03-10 04:16:00,
2013-03-09 22:21:00,48.1,47.0,29.66,SE,135,7.8,12.1,96,0.00,,,0.99,WUHU216HW,2013-03-10 04:21:00,
2013-03-09 22:26:00,48.1,47.0,29.66,ESE,113,9.8,9.8,96,0.00,,,0.99,WUHU216HW,2013-03-10 04:26:00,
2013-03-09 22:31:00,48.2,47.2,29.66,SE,135,10.1,10.1,96,0.00,,,0.99,WUHU216HW,2013-03-10 04:31:00,
2013-03-09 22:36:00,48.6,47.5,29.65,ESE,113,7.6,10.1,96,0.00,,,0.99,WUHU216HW,2013-03-10 04:36:00,
2013-03-09 22:41:00,48.6,47.5,29.66,ESE,113,6.9,10.1,96,0.00,,,0.99,WUHU216HW,2013-03-10 04:41:00,
2013-03-09 22:46:00,48.6,47.5,29.66,SE,135,4.3,8.3,96,0.00,,,0.99,WUHU216HW,2013-03-10 04:46:00,
2013-03-09 22:51:00,48.8,47.7,29.66,South,180,6.7,6.7,96,0.00,,,0.99,WUHU216HW,2013-03-10 04:51:00,
2013-03-09 22:56:00,49.1,48.1,29.67,South,180,3.4,6.7,96,0.00,,,0.99,WUHU216HW,2013-03-10 04:56:00,
2013-03-09 23:00:00,49.1,48.1,29.67,SSE,158,3.4,6.7,96,0.00,,,0.99,WUHU216HW,2013-03-10 05:00:00,
2013-03-09 23:01:00,49.1,48.1,29.67,SE,135,3.4,6.7,96,0.00,,,0.99,WUHU216HW,2013-03-10 05:01:00,
2013-03-09 23:06:00,49.3,48.3,29.67,South,180,4.0,5.1,96,0.00,,,0.99,WUHU216HW,2013-03-10 05:06:00,
2013-03-09 23:11:00,49.5,48.3,29.68,SSW,203,2.5,4.0,96,0.00,,,0.99,WUHU216HW,2013-03-10 05:11:00,
2013-03-09 23:16:00,49.7,48.5,29.68,SSE,158,2.5,3.6,96,0.00,,,0.99,WUHU216HW,2013-03-10 05:16:00,
2013-03-09 23:21:00,49.9,48.7,29.69,SSW,203,1.6,3.6,96,0.00,,,0.99,WUHU216HW,2013-03-10 05:21:00,
2013-03-09 23:26:00,50.0,48.9,29.69,SE,135,1.1,2.9,96,0.00,,,0.99,WUHU216HW,2013-03-10 05:26:00,
2013-03-09 23:31:00,50.0,48.9,29.69,SSE,158,1.3,1.8,96,0.00,,,0.99,WUHU216HW,2013-03-10 05:31:00,
2013-03-09 23:36:00,50.2,49.1,29.69,SE,135,1.1,1.8,96,0.00,,,0.99,WUHU216HW,2013-03-10 05:36:00,
2013-03-09 23:41:00,50.6,49.4,29.70,WSW,248,2.5,2.5,96,0.00,,,0.99,WUHU216HW,2013-03-10 05:41:00,
2013-03-09 23:46:00,50.6,49.4,29.70,WNW,293,1.1,2.7,96,0.00,,,0.99,WUHU216HW,2013-03-10 05:46:00,
2013-03-09 23:51:00,50.8,49.6,29.70,NNW,338,1.8,2.7,96,0.00,,,0.99,WUHU216HW,2013-03-10 05:51:00,
2013-03-09 23:56:00,50.6,49.4,29.69,North,0,1.8,2.0,96,0.00,,,0.00,WUHU216HW,2013-03-10 05:56:00,